createdAt,value
2022-08-20T00:02:16.608Z,100760.44
2022-08-20T00:04:45.013Z,100767.09
2022-08-20T00:07:16.460Z,100767.19
2022-08-20T00:09:45.630Z,100771.84
2022-08-20T00:12:17.737Z,100775.50
2022-08-20T00:14:46.055Z,100783.06
2022-08-20T00:17:14.443Z,100782.63
2022-08-20T00:19:42.714Z,100785.19
2022-08-20T00:22:11.014Z,100801.81
2022-08-20T00:24:39.252Z,100797.34
2022-08-20T00:27:07.478Z,100793.38
2022-08-20T00:29:35.708Z,100786.91
2022-08-20T00:32:04.479Z,100786.09
2022-08-20T00:34:32.783Z,100788.63
2022-08-20T00:37:01.010Z,100777.22
2022-08-20T00:39:29.230Z,100781.13
2022-08-20T00:41:57.698Z,100778.31
2022-08-20T00:44:25.902Z,100787.09
2022-08-20T00:46:55.160Z,100788.22
2022-08-20T00:49:31.313Z,100785.44
2022-08-20T00:52:13.201Z,100784.66
2022-08-20T00:54:55.033Z,100785.91
2022-08-20T00:57:59.016Z,100778.34
2022-08-20T01:00:25.559Z,100787.09
2022-08-20T01:02:55.091Z,100785.56
2022-08-20T01:05:29.664Z,100789.47
2022-08-20T01:07:58.694Z,100788.72
2022-08-20T01:10:35.136Z,100792.28
2022-08-20T01:13:12.265Z,100789.91
2022-08-20T01:15:46.076Z,100798.22
2022-08-20T01:18:21.544Z,100796.25
2022-08-20T01:20:58.306Z,100792.28
2022-08-20T01:24:00.862Z,100789.91
2022-08-20T01:26:41.714Z,100791.47
2022-08-20T01:29:29.384Z,100793.47
2022-08-20T01:32:01.557Z,100797.44
2022-08-20T01:34:30.118Z,100797.41
2022-08-20T01:36:58.771Z,100794.69
2022-08-20T01:39:32.034Z,100789.53
2022-08-20T01:42:30.351Z,100791.06
2022-08-20T01:44:58.622Z,100794.25
2022-08-20T01:47:36.467Z,100797.84
2022-08-20T01:50:26.029Z,100798.19
2022-08-20T01:53:21.000Z,100797.41
2022-08-20T01:55:49.225Z,100796.59
2022-08-20T01:58:17.402Z,100799.38
2022-08-20T02:00:45.606Z,100797.41
2022-08-20T02:03:13.827Z,100801.69
2022-08-20T02:05:42.650Z,100804.09
2022-08-20T02:08:10.910Z,100798.97
2022-08-20T02:10:39.127Z,100795.41
2022-08-20T02:13:10.101Z,100800.97
2022-08-20T02:15:39.720Z,100805.75
2022-08-20T02:18:15.506Z,100818.78
2022-08-20T02:20:46.054Z,100821.94
2022-08-20T02:23:16.313Z,100822.66
2022-08-20T02:25:47.704Z,100826.63
2022-08-20T02:28:19.918Z,100827.81
2022-08-20T02:30:53.153Z,100823.47
2022-08-20T02:33:24.597Z,100824.28
2022-08-20T02:35:56.409Z,100830.63
2022-08-20T02:38:25.463Z,100834.97
2022-08-20T02:40:53.892Z,100827.44
2022-08-20T02:43:22.078Z,100829.44
2022-08-20T02:45:51.585Z,100844.41
2022-08-20T02:48:23.037Z,100831.00
2022-08-20T02:50:58.279Z,100832.63
2022-08-20T02:53:27.638Z,100827.06
2022-08-20T02:55:56.949Z,100834.09
2022-08-20T02:58:25.438Z,100826.16
2022-08-20T03:00:54.429Z,100825.72
2022-08-20T03:03:24.440Z,100828.94
2022-08-20T03:05:56.966Z,100824.94
2022-08-20T03:08:28.638Z,100827.22
2022-08-20T03:10:56.954Z,100819.72
2022-08-20T03:13:25.398Z,100819.81
2022-08-20T03:15:59.330Z,100819.84
2022-08-20T03:18:36.714Z,100814.31
2022-08-20T03:21:09.897Z,100820.06
2022-08-20T03:23:40.573Z,100812.72
2022-08-20T03:26:12.240Z,100812.31
2022-08-20T03:28:41.612Z,100811.94
2022-08-20T03:31:12.657Z,100812.78
2022-08-20T03:33:53.197Z,100815.88
2022-08-20T03:36:29.031Z,100814.72
2022-08-20T03:39:04.792Z,100802.50
2022-08-20T03:41:33.032Z,100798.94
2022-08-20T03:44:01.264Z,100798.97
2022-08-20T03:46:29.624Z,100803.72
2022-08-20T03:49:00.626Z,100806.88
2022-08-20T03:51:31.016Z,100804.50
2022-08-20T03:53:59.828Z,100807.66
2022-08-20T03:56:28.737Z,100811.25
2022-08-20T03:58:56.938Z,100819.06
2022-08-20T04:01:44.315Z,100816.66
2022-08-20T04:04:13.637Z,100816.69
2022-08-20T04:06:42.902Z,100821.44
2022-08-20T04:09:12.535Z,100829.38
2022-08-20T04:11:42.119Z,100821.06
2022-08-20T04:14:14.232Z,100820.69
2022-08-20T04:16:47.112Z,100822.28
2022-08-20T04:19:17.323Z,100823.81
2022-08-20T04:21:48.453Z,100814.00
2022-08-20T04:24:22.532Z,100829.84
2022-08-20T04:27:03.002Z,100815.94
2022-08-20T04:29:35.345Z,100817.94
2022-08-20T04:32:07.244Z,100813.97
2022-08-20T04:34:36.962Z,100806.84
2022-08-20T04:37:05.703Z,100813.53
2022-08-20T04:39:45.562Z,100811.59
2022-08-20T04:42:13.823Z,100812.44
2022-08-20T04:44:41.988Z,100818.75
2022-08-20T04:47:10.175Z,100817.19
2022-08-20T04:49:38.903Z,100820.69
2022-08-20T04:52:07.142Z,100831.81
2022-08-20T04:54:35.689Z,100829.03
2022-08-20T04:57:04.154Z,100826.97
2022-08-20T04:59:32.409Z,100826.25
2022-08-20T05:02:00.661Z,100828.28
2022-08-20T05:04:28.850Z,100838.13
2022-08-20T05:06:57.051Z,100832.63
2022-08-20T05:09:25.334Z,100839.31
2022-08-20T05:11:53.536Z,100851.97
2022-08-20T05:14:21.953Z,100851.59
2022-08-20T05:16:50.880Z,100843.72
2022-08-20T05:19:19.240Z,100848.44
2022-08-20T05:21:47.428Z,100837.38
2022-08-20T05:24:16.510Z,100848.06
2022-08-20T05:26:44.707Z,100840.94
2022-08-20T05:29:13.213Z,100846.06
2022-08-20T05:31:42.210Z,100855.53
2022-08-20T05:34:12.612Z,100861.88
2022-08-20T05:36:49.178Z,100857.94
2022-08-20T05:39:22.627Z,100861.88
2022-08-20T05:41:51.399Z,100861.47
2022-08-20T05:44:20.067Z,100870.63
2022-08-20T05:46:48.953Z,100862.31
2022-08-20T05:49:20.851Z,100867.06
2022-08-20T05:51:51.428Z,100870.19
2022-08-20T05:54:20.016Z,100871.84
2022-08-20T05:56:48.241Z,100867.13
2022-08-20T05:59:21.082Z,100870.31
2022-08-20T06:01:53.112Z,100875.00
2022-08-20T06:04:28.738Z,100876.56
2022-08-20T06:07:06.648Z,100876.25
2022-08-20T06:09:36.421Z,100875.03
2022-08-20T06:12:09.040Z,100880.22
2022-08-20T06:14:37.357Z,100882.50
2022-08-20T06:17:13.733Z,100883.72
2022-08-20T06:19:46.914Z,100876.97
2022-08-20T06:22:20.723Z,100883.28
2022-08-20T06:24:55.963Z,100880.94
2022-08-20T06:27:24.375Z,100880.91
2022-08-20T06:29:53.959Z,100886.13
2022-08-20T06:32:32.276Z,100878.97
2022-08-20T06:35:09.377Z,100879.81
2022-08-20T06:37:40.830Z,100883.38
2022-08-20T06:40:20.077Z,100886.84
2022-08-20T06:42:49.088Z,100888.47
2022-08-20T06:45:26.452Z,100891.22
2022-08-20T06:47:58.540Z,100881.38
2022-08-20T06:50:47.310Z,100895.63
2022-08-20T06:53:21.557Z,100893.63
2022-08-20T06:55:58.068Z,100893.19
2022-08-20T06:58:37.628Z,100895.66
2022-08-20T07:01:09.760Z,100901.22
2022-08-20T07:03:42.357Z,100895.25
2022-08-20T07:06:25.945Z,100905.16
2022-08-20T07:08:55.895Z,100905.13
2022-08-20T07:11:28.181Z,100899.50
2022-08-20T07:13:58.455Z,100910.25
2022-08-20T07:16:27.849Z,100922.00
2022-08-20T07:18:56.122Z,100920.53
2022-08-20T07:21:25.784Z,100925.28
2022-08-20T07:23:53.989Z,100926.88
2022-08-20T07:26:23.340Z,100927.66
2022-08-20T07:28:51.598Z,100929.69
2022-08-20T07:31:38.260Z,100931.66
2022-08-20T07:34:11.467Z,100935.94
2022-08-20T07:36:40.207Z,100939.91
2022-08-20T07:39:08.442Z,100939.88
2022-08-20T07:41:37.652Z,100937.63
2022-08-20T07:44:06.110Z,100933.72
2022-08-20T07:46:34.499Z,100940.03
2022-08-20T07:49:05.465Z,100926.47
2022-08-20T07:51:33.781Z,100936.75
2022-08-20T07:54:02.321Z,100934.78
2022-08-20T07:56:30.617Z,100936.03
2022-08-20T07:58:59.976Z,100929.28
2022-08-20T08:01:31.677Z,100935.31
2022-08-20T08:04:00.890Z,100934.06
2022-08-20T08:06:31.784Z,100942.31
2022-08-20T08:09:06.290Z,100940.69
2022-08-20T08:11:40.106Z,100944.59
2022-08-20T08:14:11.360Z,100947.91
2022-08-20T08:16:40.030Z,100942.31
2022-08-20T08:19:12.140Z,100947.91
2022-08-20T08:21:41.492Z,100950.28
2022-08-20T08:24:12.705Z,100954.53
2022-08-20T08:26:42.733Z,100954.22
2022-08-20T08:29:12.174Z,100950.69
2022-08-20T08:31:41.351Z,100958.16
2022-08-20T08:34:09.714Z,100958.53
2022-08-20T08:36:39.309Z,100957.38
2022-08-20T08:39:07.584Z,100958.22
2022-08-20T08:41:47.303Z,100968.53
2022-08-20T08:44:29.427Z,100966.53
2022-08-20T08:47:04.101Z,100968.81
2022-08-20T08:49:38.055Z,100964.19
2022-08-20T08:52:29.922Z,100973.28
2022-08-20T08:55:06.706Z,100976.50
2022-08-20T08:57:34.979Z,100972.88
2022-08-20T09:00:13.861Z,100970.91
2022-08-20T09:03:09.387Z,100980.06
2022-08-20T09:05:50.597Z,100980.06
2022-08-20T09:08:27.345Z,100984.81
2022-08-20T09:11:00.514Z,100982.75
2022-08-20T09:13:28.713Z,100989.13
2022-08-20T09:15:57.012Z,100989.94
2022-08-20T09:18:25.313Z,100997.50
2022-08-20T09:20:53.559Z,100995.91
2022-08-20T09:23:21.790Z,100990.72
2022-08-20T09:25:51.315Z,100984.75
2022-08-20T09:28:19.604Z,100987.22
2022-08-20T09:30:47.788Z,100976.56
2022-08-20T09:33:16.269Z,100977.31
2022-08-20T09:35:46.579Z,100992.38
2022-08-20T09:38:14.813Z,100991.22
2022-08-20T09:40:44.493Z,100981.69
2022-08-20T09:43:12.741Z,100985.63
2022-08-20T09:45:41.239Z,100981.69
2022-08-20T09:48:10.245Z,100987.22
2022-08-20T09:50:47.162Z,100990.78
2022-08-20T09:53:17.547Z,100987.25
2022-08-20T09:55:52.441Z,100982.91
2022-08-20T09:58:35.703Z,100977.72
2022-08-20T10:01:15.159Z,100980.47
2022-08-20T10:03:48.065Z,100982.84
2022-08-20T10:06:21.046Z,100990.38
2022-08-20T10:08:50.113Z,100982.88
2022-08-20T10:11:18.853Z,100986.44
2022-08-20T10:13:47.105Z,100984.06
2022-08-20T10:16:15.299Z,100978.44
2022-08-20T10:18:43.502Z,100987.66
2022-08-20T10:21:12.886Z,100990.41
2022-08-20T10:23:41.896Z,100980.09
2022-08-20T10:26:12.431Z,100983.69
2022-08-20T10:31:12.056Z,100974.91
2022-08-20T10:33:42.398Z,100976.50
2022-08-20T10:36:15.910Z,100980.47
2022-08-20T10:38:45.352Z,100989.97
2022-08-20T10:41:13.586Z,100984.75
2022-08-20T10:43:41.957Z,100984.47
2022-08-20T10:46:10.194Z,100984.78
2022-08-20T10:48:38.898Z,100989.13
2022-08-20T10:51:07.115Z,100989.88
2022-08-20T10:53:36.200Z,100985.56
2022-08-20T10:56:04.642Z,100990.78
2022-08-20T10:58:39.557Z,100999.47
2022-08-20T11:01:10.216Z,100992.31
2022-08-20T11:03:38.775Z,100998.63
2022-08-20T11:06:07.321Z,101001.84
2022-08-20T11:08:36.268Z,101001.41
2022-08-20T11:11:06.722Z,101009.34
2022-08-20T11:13:35.987Z,100997.44
2022-08-20T11:16:05.325Z,101008.94
2022-08-20T11:18:33.559Z,100998.88
2022-08-20T11:21:02.203Z,100997.66
2022-08-20T11:23:30.582Z,101004.00
2022-08-20T11:25:59.311Z,101004.78
2022-08-20T11:28:30.985Z,101010.88
2022-08-20T11:31:02.108Z,101003.69
2022-08-20T11:33:30.369Z,101009.59
2022-08-20T11:35:58.681Z,101011.16
2022-08-20T11:38:27.376Z,101008.16
2022-08-20T11:40:55.569Z,101004.91
2022-08-20T11:43:23.974Z,101012.50
2022-08-20T11:45:56.184Z,101004.16
2022-08-20T11:48:24.465Z,101007.38
2022-08-20T11:50:52.734Z,101005.38
2022-08-20T11:53:21.538Z,101015.25
2022-08-20T11:55:50.946Z,101017.63
2022-08-20T11:58:19.135Z,101014.84
2022-08-20T12:00:47.909Z,101018.88
2022-08-20T12:03:16.403Z,101017.31
2022-08-20T12:05:47.177Z,101011.59
2022-08-20T12:08:27.584Z,101010.91
2022-08-20T12:11:03.105Z,101009.34
2022-08-20T12:13:48.880Z,101015.44
2022-08-20T12:16:19.238Z,101008.75
2022-08-20T12:18:48.251Z,101015.16
2022-08-20T12:21:16.804Z,101012.84
2022-08-20T12:23:45.708Z,101016.88
2022-08-20T12:26:14.234Z,101014.75
2022-08-20T12:28:42.745Z,101013.09
2022-08-20T12:31:10.940Z,101013.03
2022-08-20T12:33:39.177Z,101016.88
2022-08-20T12:36:07.692Z,101018.13
2022-08-20T12:38:36.137Z,101016.03
2022-08-20T12:41:04.620Z,101024.00
2022-08-20T12:43:32.764Z,101016.94
2022-08-20T12:46:00.997Z,101021.31
2022-08-20T12:48:29.215Z,101017.28
2022-08-20T12:50:57.459Z,101015.34
2022-08-20T12:53:25.656Z,101018.47
2022-08-20T12:55:53.863Z,101015.34
2022-08-20T12:58:22.090Z,101022.50
2022-08-20T13:00:50.608Z,101023.31
2022-08-20T13:03:21.030Z,101023.69
2022-08-20T13:05:50.098Z,101021.31
2022-08-20T13:08:19.456Z,101025.59
2022-08-20T13:10:48.231Z,101031.13
2022-08-20T13:13:20.422Z,101029.59
2022-08-20T13:15:51.361Z,101032.44
2022-08-20T13:18:20.351Z,101033.25
2022-08-20T13:20:49.178Z,101031.66
2022-08-20T13:23:17.819Z,101037.22
2022-08-20T13:25:46.191Z,101034.44
2022-08-20T13:28:14.410Z,101030.84
2022-08-20T13:30:42.651Z,101028.06
2022-08-20T13:33:10.835Z,101026.91
2022-08-20T13:35:39.074Z,101029.66
2022-08-20T13:38:07.263Z,101031.22
2022-08-20T13:40:35.474Z,101026.13
2022-08-20T13:43:07.173Z,101033.56
2022-08-20T13:45:37.958Z,101033.66
2022-08-20T13:48:10.029Z,101049.81
2022-08-20T13:50:46.963Z,101046.69
2022-08-20T13:53:16.383Z,101048.31
2022-08-20T13:55:45.321Z,101038.41
2022-08-20T13:58:13.612Z,101037.97
2022-08-20T14:00:46.166Z,101037.53
2022-08-20T14:03:17.761Z,101035.94
2022-08-20T14:05:48.455Z,101035.16
2022-08-20T14:08:22.081Z,101042.66
2022-08-20T14:10:51.883Z,101033.94
2022-08-20T14:13:24.496Z,101035.47
2022-08-20T14:15:53.374Z,101040.28
2022-08-20T14:18:22.102Z,101037.91
2022-08-20T14:20:50.683Z,101038.72
2022-08-20T14:23:18.931Z,101044.25
2022-08-20T14:25:50.236Z,101044.56
2022-08-20T14:28:23.287Z,101042.97
2022-08-20T14:30:53.390Z,101042.63
2022-08-20T14:33:24.631Z,101036.66
2022-08-20T14:35:53.229Z,101038.66
2022-08-20T14:38:21.830Z,101039.84
2022-08-20T14:40:50.702Z,101037.50
2022-08-20T14:43:19.651Z,101040.19
2022-08-20T14:45:48.232Z,101046.44
2022-08-20T14:48:16.494Z,101049.31
2022-08-20T14:50:45.244Z,101046.91
2022-08-20T14:53:13.600Z,101050.91
2022-08-20T14:55:41.976Z,101046.97
2022-08-20T14:58:13.239Z,101043.06
2022-08-20T15:00:42.584Z,101045.47
2022-08-20T15:03:13.394Z,101038.41
2022-08-20T15:05:42.071Z,101044.34
2022-08-20T15:08:12.294Z,101052.28
2022-08-20T15:10:41.575Z,101047.94
2022-08-20T15:13:09.850Z,101041.16
2022-08-20T15:15:39.446Z,101050.63
2022-08-20T15:18:07.981Z,101051.81
2022-08-20T15:20:37.559Z,101051.84
2022-08-20T15:23:06.575Z,101057.00
2022-08-20T15:25:37.739Z,101054.94
2022-08-20T15:28:10.042Z,101050.94
2022-08-20T15:30:41.441Z,101050.22
2022-08-20T15:33:11.260Z,101053.38
2022-08-20T15:35:39.603Z,101051.00
2022-08-20T15:38:08.205Z,101050.59
2022-08-20T15:40:36.578Z,101048.69
2022-08-20T15:43:06.032Z,101051.03
2022-08-20T15:45:37.246Z,101050.94
2022-08-20T15:48:20.725Z,101042.84
2022-08-20T15:51:22.504Z,101046.97
2022-08-20T15:54:01.715Z,101045.06
2022-08-20T15:56:37.328Z,101048.69
2022-08-20T15:59:25.696Z,101051.44
2022-08-20T16:02:25.647Z,101053.84
2022-08-20T16:05:10.012Z,101049.91
2022-08-20T16:08:11.320Z,101049.91
2022-08-20T16:10:54.336Z,101053.06
2022-08-20T16:13:57.894Z,101049.50
2022-08-20T16:16:36.838Z,101047.88
2022-08-20T16:19:06.029Z,101053.28
2022-08-20T16:21:40.231Z,101054.56
2022-08-20T16:24:12.914Z,101054.16
2022-08-20T16:26:58.969Z,101060.88
2022-08-20T16:29:59.206Z,101058.91
2022-08-20T16:32:41.350Z,101060.94
2022-08-20T16:35:34.893Z,101062.09
2022-08-20T16:38:45.969Z,101066.84
2022-08-20T16:41:42.204Z,101077.22
2022-08-20T16:44:28.065Z,101077.66
2022-08-20T16:47:13.946Z,101070.13
2022-08-20T16:50:08.735Z,101061.78
2022-08-20T16:52:37.337Z,101062.91
2022-08-20T16:55:05.661Z,101061.34
2022-08-20T16:57:33.931Z,101065.25
2022-08-20T17:00:35.669Z,101065.72
2022-08-20T17:03:33.500Z,101069.69
2022-08-20T17:06:39.815Z,101066.03
2022-08-20T17:09:14.403Z,101058.53
2022-08-20T17:12:09.452Z,101074.38
2022-08-20T17:14:51.458Z,101070.78
2022-08-20T17:17:35.880Z,101068.03
2022-08-20T17:20:20.475Z,101066.06
2022-08-20T17:22:54.346Z,101062.16
2022-08-20T17:25:33.614Z,101074.88
2022-08-20T17:28:17.692Z,101073.69
2022-08-20T17:30:47.501Z,101070.09
2022-08-20T17:33:38.806Z,101082.41
2022-08-20T17:36:22.248Z,101078.44
2022-08-20T17:38:57.604Z,101081.22
2022-08-20T17:41:32.558Z,101094.72
2022-08-20T17:44:08.860Z,101087.56
2022-08-20T17:46:46.643Z,101094.34
2022-08-20T17:49:26.806Z,101097.50
2022-08-20T17:51:56.977Z,101099.03
2022-08-20T17:54:37.005Z,101093.53
2022-08-20T17:57:12.768Z,101094.69
2022-08-20T18:00:01.410Z,101098.66
2022-08-20T18:02:34.211Z,101101.03
2022-08-20T18:05:10.272Z,101104.19
2022-08-20T18:08:20.070Z,101108.94
2022-08-20T18:11:29.887Z,101103.41
2022-08-20T18:14:16.297Z,101110.94
2022-08-20T18:17:14.733Z,101103.00
2022-08-20T18:20:19.623Z,101102.97
2022-08-20T18:23:03.811Z,101104.19
2022-08-20T18:26:00.539Z,101112.88
2022-08-20T18:28:38.877Z,101110.97
2022-08-20T18:31:10.279Z,101112.94
2022-08-20T18:33:42.902Z,101117.22
2022-08-20T18:36:20.102Z,101110.91
2022-08-20T18:38:57.298Z,101113.72
2022-08-20T18:41:35.280Z,101116.53
2022-08-20T18:44:35.270Z,101119.31
2022-08-20T18:47:30.432Z,101116.13
2022-08-20T18:50:16.538Z,101120.50
2022-08-20T18:52:50.555Z,101121.69
2022-08-20T18:55:39.414Z,101122.09
2022-08-20T18:58:15.407Z,101128.00
2022-08-20T19:00:48.580Z,101132.41
2022-08-20T19:03:37.065Z,101134.00
2022-08-20T19:06:55.529Z,101139.16
2022-08-20T19:09:55.135Z,101129.22
2022-08-20T19:12:52.515Z,101138.75
2022-08-20T19:15:23.786Z,101131.63
2022-08-20T19:18:15.632Z,101133.19
2022-08-20T19:20:57.799Z,101134.38
2022-08-20T19:23:30.028Z,101126.84
2022-08-20T19:26:06.210Z,101132.00
2022-08-20T19:29:07.122Z,101132.03
2022-08-20T19:31:36.548Z,101124.44
2022-08-20T19:34:20.054Z,101132.34
2022-08-20T19:37:34.846Z,101131.63
2022-08-20T19:40:00.433Z,101134.41
2022-08-20T19:42:33.707Z,101134.41
2022-08-20T19:45:17.176Z,101128.03
2022-08-20T19:48:27.755Z,101127.66
2022-08-20T19:51:47.893Z,101126.44
2022-08-20T19:54:27.247Z,101135.19
2022-08-20T19:57:06.956Z,101136.38
2022-08-20T19:59:35.265Z,101147.47
2022-08-20T20:02:21.515Z,101139.56
2022-08-20T20:04:55.565Z,101139.53
2022-08-20T20:07:35.801Z,101143.13
2022-08-20T20:10:09.906Z,101147.50
2022-08-20T20:12:39.711Z,101147.88
2022-08-20T20:15:08.445Z,101149.09
2022-08-20T20:17:37.775Z,101147.91
2022-08-20T20:20:31.418Z,101148.28
2022-08-20T20:23:13.851Z,101143.91
2022-08-20T20:25:53.151Z,101141.50
2022-08-20T20:28:53.100Z,101131.19
2022-08-20T20:31:30.953Z,101141.94
2022-08-20T20:34:13.353Z,101132.00
2022-08-20T20:36:45.813Z,101135.19
2022-08-20T20:39:32.460Z,101139.16
2022-08-20T20:42:08.780Z,101137.56
2022-08-20T20:44:43.652Z,101132.00
2022-08-20T20:47:33.654Z,101140.34
2022-08-20T20:50:10.499Z,101128.81
2022-08-20T20:52:50.058Z,101140.34
2022-08-20T20:55:32.563Z,101139.94
2022-08-20T20:58:02.889Z,101139.16
2022-08-20T21:00:33.915Z,101137.56
2022-08-20T21:03:03.983Z,101131.22
2022-08-20T21:05:33.254Z,101141.53
2022-08-20T21:08:08.071Z,101141.94
2022-08-20T21:10:40.889Z,101137.19
2022-08-20T21:13:11.114Z,101134.38
2022-08-20T21:15:40.198Z,101130.81
2022-08-20T21:18:09.415Z,101127.22
2022-08-20T21:20:38.240Z,101126.84
2022-08-20T21:23:08.515Z,101123.66
2022-08-20T21:25:37.374Z,101122.88
2022-08-20T21:28:05.854Z,101119.34
2022-08-20T21:30:34.161Z,101124.88
2022-08-20T21:33:02.437Z,101122.09
2022-08-20T21:35:30.586Z,101114.56
2022-08-20T21:37:58.742Z,101121.31
2022-08-20T21:40:28.401Z,101113.75
2022-08-20T21:42:57.374Z,101114.56
2022-08-20T21:45:28.547Z,101114.19
2022-08-20T21:47:57.327Z,101114.94
2022-08-20T21:50:27.088Z,101111.00
2022-08-20T21:52:59.846Z,101103.44
2022-08-20T21:55:39.391Z,101107.41
2022-08-20T21:58:10.116Z,101099.06
2022-08-20T22:00:54.576Z,101104.66
2022-08-20T22:03:38.954Z,101100.28
2022-08-20T22:06:12.987Z,101097.03
2022-08-20T22:08:41.940Z,101097.41
2022-08-20T22:11:12.030Z,101092.88
2022-08-20T22:13:41.528Z,101097.88
2022-08-20T22:16:14.583Z,101090.34
2022-08-20T22:18:43.164Z,101102.75
2022-08-20T22:21:23.461Z,101099.81
2022-08-20T22:23:53.552Z,101102.97
2022-08-20T22:26:21.791Z,101097.38
2022-08-20T22:28:51.042Z,101089.97
2022-08-20T22:31:27.077Z,101095.59
2022-08-20T22:33:57.570Z,101094.44
2022-08-20T22:36:26.041Z,101096.03
2022-08-20T22:38:55.571Z,101092.66
2022-08-20T22:41:24.472Z,101092.53
2022-08-20T22:43:56.151Z,101097.03
2022-08-20T22:46:32.291Z,101100.25
2022-08-20T22:49:00.784Z,101107.19
2022-08-20T22:51:36.099Z,101106.50
2022-08-20T22:54:12.506Z,101110.38
2022-08-20T22:56:40.967Z,101109.09
2022-08-20T22:59:09.184Z,101106.19
2022-08-20T23:01:37.502Z,101106.03
2022-08-20T23:04:19.635Z,101100.16
2022-08-20T23:06:48.004Z,101107.41
2022-08-20T23:09:20.884Z,101102.41
2022-08-20T23:11:50.319Z,101108.50
2022-08-20T23:14:19.227Z,101099.41
2022-08-20T23:16:58.164Z,101104.59
2022-08-20T23:19:26.832Z,101104.97
2022-08-20T23:21:55.156Z,101103.91
2022-08-20T23:24:23.388Z,101109.91
2022-08-20T23:26:53.499Z,101110.34
2022-08-20T23:29:26.079Z,101110.41
2022-08-20T23:31:57.134Z,101111.69
2022-08-20T23:34:26.537Z,101110.56
2022-08-20T23:36:57.407Z,101108.97
2022-08-20T23:39:27.648Z,101108.19
2022-08-20T23:41:56.166Z,101101.84
2022-08-20T23:44:26.127Z,101108.22
2022-08-20T23:46:59.291Z,101101.88
2022-08-20T23:49:29.852Z,101099.09
2022-08-20T23:52:00.688Z,101105.41
2022-08-20T23:54:31.326Z,101112.03
2022-08-20T23:56:59.570Z,101110.59
2022-08-20T23:59:27.828Z,101103.38
